sensor_id;sensor_type;location;lat;lon;timestamp;pressure;altitude;pressure_sealevel;temperature;humidity
22000;BME280;11164;48.818;2.322;2023-05-14T00:00:46;100976.66;;;16.84;38.94
22000;BME280;11164;48.818;2.322;2023-05-14T00:03:12;100976.69;;;16.96;38.91
22000;BME280;11164;48.818;2.322;2023-05-14T00:05:37;100961.94;;;17.04;38.62
22000;BME280;11164;48.818;2.322;2023-05-14T00:08:03;100984.00;;;17.26;38.33
22000;BME280;11164;48.818;2.322;2023-05-14T00:10:28;100980.38;;;17.02;38.44
22000;BME280;11164;48.818;2.322;2023-05-14T00:12:53;100985.59;;;17.03;38.87
22000;BME280;11164;48.818;2.322;2023-05-14T00:15:19;100981.59;;;17.06;38.57
22000;BME280;11164;48.818;2.322;2023-05-14T00:17:44;100973.06;;;17.02;38.46
22000;BME280;11164;48.818;2.322;2023-05-14T00:20:10;100978.06;;;17.17;38.40
22000;BME280;11164;48.818;2.322;2023-05-14T00:22:37;100978.00;;;17.05;38.30
22000;BME280;11164;48.818;2.322;2023-05-14T00:25:03;100979.41;;;16.96;38.84
22000;BME280;11164;48.818;2.322;2023-05-14T00:27:29;100980.47;;;16.95;38.63
22000;BME280;11164;48.818;2.322;2023-05-14T00:29:54;100984.97;;;16.90;38.51
22000;BME280;11164;48.818;2.322;2023-05-14T00:32:20;100962.84;;;16.67;38.81
22000;BME280;11164;48.818;2.322;2023-05-14T00:34:45;100983.84;;;16.79;38.69
22000;BME280;11164;48.818;2.322;2023-05-14T00:37:11;100984.53;;;16.74;39.05
22000;BME280;11164;48.818;2.322;2023-05-14T00:39:36;100969.97;;;16.50;39.62
22000;BME280;11164;48.818;2.322;2023-05-14T00:42:01;100961.69;;;16.26;39.64
22000;BME280;11164;48.818;2.322;2023-05-14T00:44:27;100934.25;;;16.09;39.79
22000;BME280;11164;48.818;2.322;2023-05-14T00:46:53;100957.06;;;16.27;39.56
22000;BME280;11164;48.818;2.322;2023-05-14T00:49:18;100958.75;;;16.28;39.58
22000;BME280;11164;48.818;2.322;2023-05-14T00:51:43;100951.00;;;16.43;39.37
22000;BME280;11164;48.818;2.322;2023-05-14T00:54:14;100958.09;;;16.44;39.26
22000;BME280;11164;48.818;2.322;2023-05-14T00:56:41;100948.09;;;16.57;39.04
22000;BME280;11164;48.818;2.322;2023-05-14T00:59:07;100941.63;;;16.39;39.31
22000;BME280;11164;48.818;2.322;2023-05-14T01:01:32;100945.59;;;16.25;39.37
22000;BME280;11164;48.818;2.322;2023-05-14T01:03:58;100942.56;;;16.15;39.74
22000;BME280;11164;48.818;2.322;2023-05-14T01:09:02;100950.03;;;16.01;40.09
22000;BME280;11164;48.818;2.322;2023-05-14T01:14:20;100954.03;;;16.35;40.19
22000;BME280;11164;48.818;2.322;2023-05-14T01:16:48;100945.34;;;16.08;39.77
22000;BME280;11164;48.818;2.322;2023-05-14T01:19:26;100942.41;;;16.09;41.09
22000;BME280;11164;48.818;2.322;2023-05-14T01:21:53;100937.88;;;16.22;39.50
22000;BME280;11164;48.818;2.322;2023-05-14T01:24:18;100939.91;;;16.26;39.36
22000;BME280;11164;48.818;2.322;2023-05-14T01:26:44;100934.41;;;16.33;39.15
22000;BME280;11164;48.818;2.322;2023-05-14T01:29:18;100941.22;;;16.05;39.85
22000;BME280;11164;48.818;2.322;2023-05-14T01:31:46;100946.47;;;15.82;40.05
22000;BME280;11164;48.818;2.322;2023-05-14T01:34:13;100947.94;;;15.59;40.70
22000;BME280;11164;48.818;2.322;2023-05-14T01:36:39;100942.69;;;15.39;40.77
22000;BME280;11164;48.818;2.322;2023-05-14T01:39:06;100949.88;;;15.02;41.49
22000;BME280;11164;48.818;2.322;2023-05-14T01:41:36;100953.66;;;15.26;40.87
22000;BME280;11164;48.818;2.322;2023-05-14T01:44:03;100947.16;;;15.52;40.24
22000;BME280;11164;48.818;2.322;2023-05-14T01:46:32;100927.16;;;15.21;40.91
22000;BME280;11164;48.818;2.322;2023-05-14T01:49:01;100948.13;;;15.39;40.73
22000;BME280;11164;48.818;2.322;2023-05-14T01:51:26;100954.38;;;15.40;40.65
22000;BME280;11164;48.818;2.322;2023-05-14T01:53:51;100949.56;;;15.42;40.65
22000;BME280;11164;48.818;2.322;2023-05-14T01:56:19;100948.34;;;15.37;41.27
22000;BME280;11164;48.818;2.322;2023-05-14T01:58:46;100950.97;;;15.44;40.69
22000;BME280;11164;48.818;2.322;2023-05-14T02:01:11;100951.69;;;15.08;41.29
22000;BME280;11164;48.818;2.322;2023-05-14T02:03:36;100956.25;;;15.14;41.35
22000;BME280;11164;48.818;2.322;2023-05-14T02:06:01;100951.50;;;15.34;40.72
22000;BME280;11164;48.818;2.322;2023-05-14T02:08:27;100947.28;;;15.13;41.32
22000;BME280;11164;48.818;2.322;2023-05-14T02:10:52;100952.84;;;15.25;41.04
22000;BME280;11164;48.818;2.322;2023-05-14T02:13:18;100926.84;;;15.54;40.68
22000;BME280;11164;48.818;2.322;2023-05-14T02:15:43;100950.47;;;15.54;40.78
22000;BME280;11164;48.818;2.322;2023-05-14T02:18:08;100949.56;;;15.42;40.87
22000;BME280;11164;48.818;2.322;2023-05-14T02:20:34;100954.31;;;15.21;41.22
22000;BME280;11164;48.818;2.322;2023-05-14T02:22:59;100950.66;;;15.09;41.61
22000;BME280;11164;48.818;2.322;2023-05-14T02:25:24;100950.66;;;15.09;41.52
22000;BME280;11164;48.818;2.322;2023-05-14T02:27:50;100941.84;;;15.38;40.93
22000;BME280;11164;48.818;2.322;2023-05-14T02:30:15;100941.34;;;15.48;40.75
22000;BME280;11164;48.818;2.322;2023-05-14T02:32:40;100936.13;;;15.47;40.92
22000;BME280;11164;48.818;2.322;2023-05-14T02:35:06;100956.31;;;15.32;41.28
22000;BME280;11164;48.818;2.322;2023-05-14T02:37:31;100946.22;;;15.14;41.36
22000;BME280;11164;48.818;2.322;2023-05-14T02:39:58;100947.84;;;15.22;41.31
22000;BME280;11164;48.818;2.322;2023-05-14T02:42:25;100934.06;;;15.42;41.00
22000;BME280;11164;48.818;2.322;2023-05-14T02:44:51;100944.38;;;15.33;41.13
22000;BME280;11164;48.818;2.322;2023-05-14T02:47:17;100935.28;;;15.21;41.39
22000;BME280;11164;48.818;2.322;2023-05-14T02:49:42;100923.88;;;15.37;41.00
22000;BME280;11164;48.818;2.322;2023-05-14T02:52:07;100935.38;;;15.58;40.66
22000;BME280;11164;48.818;2.322;2023-05-14T02:54:33;100914.09;;;15.55;40.73
22000;BME280;11164;48.818;2.322;2023-05-14T02:56:58;100950.88;;;15.57;40.89
22000;BME280;11164;48.818;2.322;2023-05-14T02:59:23;100948.44;;;15.24;41.50
22000;BME280;11164;48.818;2.322;2023-05-14T03:01:49;100943.22;;;14.97;41.53
22000;BME280;11164;48.818;2.322;2023-05-14T03:04:14;100947.16;;;14.63;42.27
22000;BME280;11164;48.818;2.322;2023-05-14T03:06:40;100947.97;;;14.63;42.25
22000;BME280;11164;48.818;2.322;2023-05-14T03:09:05;100923.44;;;14.45;42.43
22000;BME280;11164;48.818;2.322;2023-05-14T03:11:31;100938.25;;;14.88;41.63
22000;BME280;11164;48.818;2.322;2023-05-14T03:13:57;100946.75;;;15.23;41.11
22000;BME280;11164;48.818;2.322;2023-05-14T03:16:22;100943.50;;;15.40;40.82
22000;BME280;11164;48.818;2.322;2023-05-14T03:18:47;100937.91;;;15.34;40.88
22000;BME280;11164;48.818;2.322;2023-05-14T03:21:13;100943.50;;;15.14;41.32
22000;BME280;11164;48.818;2.322;2023-05-14T03:23:38;100949.59;;;15.10;41.54
22000;BME280;11164;48.818;2.322;2023-05-14T03:26:03;100949.19;;;14.68;42.10
22000;BME280;11164;48.818;2.322;2023-05-14T03:28:29;100941.19;;;14.41;42.72
22000;BME280;11164;48.818;2.322;2023-05-14T03:30:54;100947.63;;;14.47;42.52
22000;BME280;11164;48.818;2.322;2023-05-14T03:33:20;100948.69;;;14.52;42.11
22000;BME280;11164;48.818;2.322;2023-05-14T03:35:46;100945.09;;;14.58;42.14
22000;BME280;11164;48.818;2.322;2023-05-14T03:38:12;100936.94;;;14.58;42.10
22000;BME280;11164;48.818;2.322;2023-05-14T03:40:37;100943.97;;;14.66;41.95
22000;BME280;11164;48.818;2.322;2023-05-14T03:43:03;100943.59;;;14.62;42.12
22000;BME280;11164;48.818;2.322;2023-05-14T03:45:28;100942.59;;;14.50;42.50
22000;BME280;11164;48.818;2.322;2023-05-14T03:47:54;100944.88;;;14.60;42.27
22000;BME280;11164;48.818;2.322;2023-05-14T03:50:20;100939.28;;;14.48;42.39
22000;BME280;11164;48.818;2.322;2023-05-14T03:52:45;100940.53;;;14.52;42.49
22000;BME280;11164;48.818;2.322;2023-05-14T03:55:10;100935.84;;;14.66;42.28
22000;BME280;11164;48.818;2.322;2023-05-14T03:57:36;100942.09;;;14.73;41.98
22000;BME280;11164;48.818;2.322;2023-05-14T04:00:02;100944.84;;;14.67;42.39
22000;BME280;11164;48.818;2.322;2023-05-14T04:02:28;100941.97;;;14.55;42.44
22000;BME280;11164;48.818;2.322;2023-05-14T04:04:53;100945.72;;;14.54;42.50
22000;BME280;11164;48.818;2.322;2023-05-14T04:07:18;100946.88;;;14.71;42.18
22000;BME280;11164;48.818;2.322;2023-05-14T04:09:44;100950.06;;;14.61;42.25
22000;BME280;11164;48.818;2.322;2023-05-14T04:12:09;100950.06;;;14.61;42.63
22000;BME280;11164;48.818;2.322;2023-05-14T04:14:34;100947.97;;;14.63;42.72
22000;BME280;11164;48.818;2.322;2023-05-14T04:17:00;100947.66;;;14.40;43.07
22000;BME280;11164;48.818;2.322;2023-05-14T04:19:25;100952.13;;;14.66;42.62
22000;BME280;11164;48.818;2.322;2023-05-14T04:21:50;100954.34;;;14.44;43.11
22000;BME280;11164;48.818;2.322;2023-05-14T04:24:16;100943.84;;;14.09;43.69
22000;BME280;11164;48.818;2.322;2023-05-14T04:26:41;100939.28;;;13.96;43.88
22000;BME280;11164;48.818;2.322;2023-05-14T04:29:07;100947.19;;;13.98;44.01
22000;BME280;11164;48.818;2.322;2023-05-14T04:31:32;100951.59;;;13.92;43.90
22000;BME280;11164;48.818;2.322;2023-05-14T04:33:57;100955.72;;;14.08;43.67
22000;BME280;11164;48.818;2.322;2023-05-14T04:36:23;100956.94;;;14.12;43.35
22000;BME280;11164;48.818;2.322;2023-05-14T04:38:48;100946.75;;;14.08;43.38
22000;BME280;11164;48.818;2.322;2023-05-14T04:41:14;100952.41;;;13.99;43.86
22000;BME280;11164;48.818;2.322;2023-05-14T04:43:39;100949.66;;;14.13;43.72
22000;BME280;11164;48.818;2.322;2023-05-14T04:46:04;100957.72;;;14.33;43.29
22000;BME280;11164;48.818;2.322;2023-05-14T04:48:30;100958.44;;;14.60;42.87
22000;BME280;11164;48.818;2.322;2023-05-14T04:50:55;100956.09;;;14.18;43.77
22000;BME280;11164;48.818;2.322;2023-05-14T04:53:21;100954.94;;;13.74;44.87
22000;BME280;11164;48.818;2.322;2023-05-14T04:55:46;100958.06;;;13.91;44.34
22000;BME280;11164;48.818;2.322;2023-05-14T04:58:13;100950.38;;;13.88;44.03
22000;BME280;11164;48.818;2.322;2023-05-14T05:00:39;100953.66;;;13.83;44.28
22000;BME280;11164;48.818;2.322;2023-05-14T05:03:05;100957.41;;;14.09;44.02
22000;BME280;11164;48.818;2.322;2023-05-14T05:05:30;100943.56;;;14.24;43.47
22000;BME280;11164;48.818;2.322;2023-05-14T05:07:55;100949.56;;;14.33;43.38
22000;BME280;11164;48.818;2.322;2023-05-14T05:10:21;100950.31;;;14.01;44.07
22000;BME280;11164;48.818;2.322;2023-05-14T05:12:46;100953.09;;;14.40;43.40
22000;BME280;11164;48.818;2.322;2023-05-14T05:15:11;100945.44;;;14.69;43.06
22000;BME280;11164;48.818;2.322;2023-05-14T05:17:37;100949.59;;;14.26;43.85
22000;BME280;11164;48.818;2.322;2023-05-14T05:20:04;100948.53;;;14.34;43.43
22000;BME280;11164;48.818;2.322;2023-05-14T05:22:32;100940.03;;;14.23;43.74
22000;BME280;11164;48.818;2.322;2023-05-14T05:24:57;100951.28;;;14.20;43.98
22000;BME280;11164;48.818;2.322;2023-05-14T05:27:23;100951.19;;;14.47;43.62
22000;BME280;11164;48.818;2.322;2023-05-14T05:29:49;100946.53;;;14.61;43.32
22000;BME280;11164;48.818;2.322;2023-05-14T05:32:14;100945.47;;;14.62;43.11
22000;BME280;11164;48.818;2.322;2023-05-14T05:34:40;100952.38;;;14.65;43.24
22000;BME280;11164;48.818;2.322;2023-05-14T05:37:05;100949.75;;;14.44;43.59
22000;BME280;11164;48.818;2.322;2023-05-14T05:39:31;100956.06;;;14.32;43.96
22000;BME280;11164;48.818;2.322;2023-05-14T05:41:59;100955.03;;;14.26;43.86
22000;BME280;11164;48.818;2.322;2023-05-14T05:44:25;100959.75;;;14.44;43.47
22000;BME280;11164;48.818;2.322;2023-05-14T05:46:51;100965.84;;;14.33;44.07
22000;BME280;11164;48.818;2.322;2023-05-14T05:49:16;100958.59;;;14.27;43.96
22000;BME280;11164;48.818;2.322;2023-05-14T05:51:41;100966.38;;;13.96;44.66
22000;BME280;11164;48.818;2.322;2023-05-14T05:54:07;100956.53;;;14.15;44.08
22000;BME280;11164;48.818;2.322;2023-05-14T05:56:32;100977.09;;;14.43;43.84
22000;BME280;11164;48.818;2.322;2023-05-14T05:58:57;100973.69;;;14.61;43.47
22000;BME280;11164;48.818;2.322;2023-05-14T06:01:22;100971.81;;;14.55;43.55
22000;BME280;11164;48.818;2.322;2023-05-14T06:03:48;100973.41;;;14.69;43.50
22000;BME280;11164;48.818;2.322;2023-05-14T06:06:13;100965.09;;;14.57;43.47
22000;BME280;11164;48.818;2.322;2023-05-14T06:08:40;100981.69;;;14.36;44.23
22000;BME280;11164;48.818;2.322;2023-05-14T06:11:06;100982.00;;;14.14;44.74
22000;BME280;11164;48.818;2.322;2023-05-14T06:13:32;100980.50;;;14.18;44.43
22000;BME280;11164;48.818;2.322;2023-05-14T06:15:57;100984.09;;;13.85;45.18
22000;BME280;11164;48.818;2.322;2023-05-14T06:18:22;100989.53;;;13.92;44.78
22000;BME280;11164;48.818;2.322;2023-05-14T06:20:48;100988.72;;;13.72;45.27
22000;BME280;11164;48.818;2.322;2023-05-14T06:23:13;101003.72;;;13.94;45.05
22000;BME280;11164;48.818;2.322;2023-05-14T06:25:38;101006.81;;;14.11;44.52
22000;BME280;11164;48.818;2.322;2023-05-14T06:28:03;101000.94;;;14.21;44.28
22000;BME280;11164;48.818;2.322;2023-05-14T06:30:29;101007.94;;;14.49;43.75
22000;BME280;11164;48.818;2.322;2023-05-14T06:32:54;101007.13;;;14.48;43.92
22000;BME280;11164;48.818;2.322;2023-05-14T06:35:20;101008.13;;;14.54;43.67
22000;BME280;11164;48.818;2.322;2023-05-14T06:37:45;101009.41;;;14.51;44.03
22000;BME280;11164;48.818;2.322;2023-05-14T06:40:11;101013.56;;;14.54;43.94
22000;BME280;11164;48.818;2.322;2023-05-14T06:42:37;101010.59;;;14.69;43.63
22000;BME280;11164;48.818;2.322;2023-05-14T06:45:03;101016.03;;;14.62;43.62
22000;BME280;11164;48.818;2.322;2023-05-14T06:47:28;101016.34;;;14.34;44.16
22000;BME280;11164;48.818;2.322;2023-05-14T06:49:54;101008.81;;;14.42;43.99
22000;BME280;11164;48.818;2.322;2023-05-14T06:52:22;101020.81;;;14.67;43.58
22000;BME280;11164;48.818;2.322;2023-05-14T06:54:48;101017.34;;;14.53;43.82
22000;BME280;11164;48.818;2.322;2023-05-14T06:57:13;101013.13;;;14.57;43.90
22000;BME280;11164;48.818;2.322;2023-05-14T06:59:38;101003.28;;;14.62;43.83
22000;BME280;11164;48.818;2.322;2023-05-14T07:02:04;101013.09;;;14.63;43.70
22000;BME280;11164;48.818;2.322;2023-05-14T07:04:29;100993.19;;;14.76;43.46
22000;BME280;11164;48.818;2.322;2023-05-14T07:06:54;101000.91;;;14.79;43.39
22000;BME280;11164;48.818;2.322;2023-05-14T07:09:20;101003.13;;;15.03;43.11
22000;BME280;11164;48.818;2.322;2023-05-14T07:11:46;101010.09;;;15.24;42.81
22000;BME280;11164;48.818;2.322;2023-05-14T07:14:11;101008.25;;;15.17;43.07
22000;BME280;11164;48.818;2.322;2023-05-14T07:16:36;101008.38;;;14.97;43.37
22000;BME280;11164;48.818;2.322;2023-05-14T07:19:02;101007.13;;;14.93;43.54
22000;BME280;11164;48.818;2.322;2023-05-14T07:21:27;101013.09;;;15.09;43.21
22000;BME280;11164;48.818;2.322;2023-05-14T07:23:53;101010.47;;;14.95;43.46
22000;BME280;11164;48.818;2.322;2023-05-14T07:26:18;101016.72;;;15.03;43.32
22000;BME280;11164;48.818;2.322;2023-05-14T07:28:43;101015.16;;;14.75;43.77
22000;BME280;11164;48.818;2.322;2023-05-14T07:31:09;101014.06;;;14.89;43.51
22000;BME280;11164;48.818;2.322;2023-05-14T07:33:34;101012.22;;;14.83;43.57
22000;BME280;11164;48.818;2.322;2023-05-14T07:36:00;101018.72;;;15.14;43.23
22000;BME280;11164;48.818;2.322;2023-05-14T07:38:26;101030.69;;;15.38;42.82
22000;BME280;11164;48.818;2.322;2023-05-14T07:40:52;101023.84;;;15.29;43.00
22000;BME280;11164;48.818;2.322;2023-05-14T07:43:17;101025.44;;;14.59;44.13
22000;BME280;11164;48.818;2.322;2023-05-14T07:45:42;101027.72;;;14.62;44.16
22000;BME280;11164;48.818;2.322;2023-05-14T07:48:08;101015.88;;;14.50;44.16
22000;BME280;11164;48.818;2.322;2023-05-14T07:50:33;101025.31;;;14.41;44.35
22000;BME280;11164;48.818;2.322;2023-05-14T07:52:58;101021.97;;;14.39;44.42
22000;BME280;11164;48.818;2.322;2023-05-14T07:55:24;101027.84;;;14.22;44.72
22000;BME280;11164;48.818;2.322;2023-05-14T07:57:50;101017.59;;;14.38;44.54
22000;BME280;11164;48.818;2.322;2023-05-14T08:00:15;100992.66;;;14.09;44.49
22000;BME280;11164;48.818;2.322;2023-05-14T08:02:41;101020.16;;;14.19;44.78
22000;BME280;11164;48.818;2.322;2023-05-14T08:05:08;101017.53;;;14.58;44.13
22000;BME280;11164;48.818;2.322;2023-05-14T08:07:33;101025.13;;;14.88;43.49
22000;BME280;11164;48.818;2.322;2023-05-14T08:09:59;101008.25;;;14.72;43.82
22000;BME280;11164;48.818;2.322;2023-05-14T08:12:25;101015.72;;;14.38;44.54
22000;BME280;11164;48.818;2.322;2023-05-14T08:14:52;101019.84;;;14.54;44.10
22000;BME280;11164;48.818;2.322;2023-05-14T08:17:17;101024.56;;;14.66;44.04
22000;BME280;11164;48.818;2.322;2023-05-14T08:19:44;101026.41;;;14.78;43.77
22000;BME280;11164;48.818;2.322;2023-05-14T08:22:11;101035.56;;;14.91;43.54
22000;BME280;11164;48.818;2.322;2023-05-14T08:24:40;101031.06;;;15.42;42.90
22000;BME280;11164;48.818;2.322;2023-05-14T08:27:08;101026.47;;;15.42;42.90
22000;BME280;11164;48.818;2.322;2023-05-14T08:29:35;101030.19;;;15.48;42.77
22000;BME280;11164;48.818;2.322;2023-05-14T08:32:01;101036.75;;;15.02;43.59
22000;BME280;11164;48.818;2.322;2023-05-14T08:34:27;101037.63;;;14.95;43.59
22000;BME280;11164;48.818;2.322;2023-05-14T08:36:52;101037.69;;;15.21;43.28
22000;BME280;11164;48.818;2.322;2023-05-14T08:39:18;101029.69;;;15.32;43.23
22000;BME280;11164;48.818;2.322;2023-05-14T08:41:44;101037.44;;;15.29;43.38
22000;BME280;11164;48.818;2.322;2023-05-14T08:44:25;101039.09;;;15.30;43.18
22000;BME280;11164;48.818;2.322;2023-05-14T08:46:57;101040.38;;;15.27;43.24
22000;BME280;11164;48.818;2.322;2023-05-14T08:49:43;101040.88;;;15.11;43.31
22000;BME280;11164;48.818;2.322;2023-05-14T08:52:10;101046.16;;;14.99;43.51
22000;BME280;11164;48.818;2.322;2023-05-14T08:54:37;101039.00;;;15.11;43.51
22000;BME280;11164;48.818;2.322;2023-05-14T08:57:03;101036.63;;;15.22;43.45
22000;BME280;11164;48.818;2.322;2023-05-14T08:59:29;101045.75;;;15.34;43.26
22000;BME280;11164;48.818;2.322;2023-05-14T09:01:55;101045.69;;;15.41;42.99
22000;BME280;11164;48.818;2.322;2023-05-14T09:04:23;101027.44;;;15.23;43.19
22000;BME280;11164;48.818;2.322;2023-05-14T09:06:53;101037.78;;;15.39;42.93
22000;BME280;11164;48.818;2.322;2023-05-14T09:09:18;101022.03;;;15.48;42.79
22000;BME280;11164;48.818;2.322;2023-05-14T09:11:48;101035.00;;;15.78;42.57
22000;BME280;11164;48.818;2.322;2023-05-14T09:14:14;101037.25;;;15.24;43.58
22000;BME280;11164;48.818;2.322;2023-05-14T09:16:40;101022.06;;;15.09;43.63
22000;BME280;11164;48.818;2.322;2023-05-14T09:19:07;101035.53;;;15.29;43.35
22000;BME280;11164;48.818;2.322;2023-05-14T09:21:33;101022.25;;;15.46;42.96
22000;BME280;11164;48.818;2.322;2023-05-14T09:23:59;101029.94;;;15.49;42.79
22000;BME280;11164;48.818;2.322;2023-05-14T09:26:25;101028.66;;;15.84;42.52
22000;BME280;11164;48.818;2.322;2023-05-14T09:28:55;101023.56;;;16.49;41.60
22000;BME280;11164;48.818;2.322;2023-05-14T09:31:22;101016.34;;;16.43;41.63
22000;BME280;11164;48.818;2.322;2023-05-14T09:33:51;101015.25;;;16.07;42.38
22000;BME280;11164;48.818;2.322;2023-05-14T09:36:17;101017.00;;;16.20;42.17
22000;BME280;11164;48.818;2.322;2023-05-14T09:38:42;101011.78;;;16.19;42.12
22000;BME280;11164;48.818;2.322;2023-05-14T09:41:07;101024.03;;;16.09;42.38
22000;BME280;11164;48.818;2.322;2023-05-14T09:43:33;101002.31;;;16.03;42.29
22000;BME280;11164;48.818;2.322;2023-05-14T09:45:58;101029.94;;;16.43;41.98
22000;BME280;11164;48.818;2.322;2023-05-14T09:48:24;101028.19;;;16.30;42.32
22000;BME280;11164;48.818;2.322;2023-05-14T09:50:49;101023.13;;;16.16;42.54
22000;BME280;11164;48.818;2.322;2023-05-14T09:53:16;101025.16;;;16.39;42.01
22000;BME280;11164;48.818;2.322;2023-05-14T09:55:41;101015.09;;;16.39;41.93
22000;BME280;11164;48.818;2.322;2023-05-14T09:58:07;101024.88;;;16.65;41.89
22000;BME280;11164;48.818;2.322;2023-05-14T10:00:33;101013.59;;;16.80;41.70
22000;BME280;11164;48.818;2.322;2023-05-14T10:03:06;101028.34;;;16.73;41.77
22000;BME280;11164;48.818;2.322;2023-05-14T10:05:34;101016.31;;;16.80;41.47
22000;BME280;11164;48.818;2.322;2023-05-14T10:08:03;101028.50;;;17.08;41.15
22000;BME280;11164;48.818;2.322;2023-05-14T10:10:31;101020.47;;;17.13;41.44
22000;BME280;11164;48.818;2.322;2023-05-14T10:12:59;101013.81;;;17.51;40.80
22000;BME280;11164;48.818;2.322;2023-05-14T10:18:19;101013.00;;;17.20;41.26
22000;BME280;11164;48.818;2.322;2023-05-14T10:20:49;101024.63;;;17.28;41.14
22000;BME280;11164;48.818;2.322;2023-05-14T10:23:17;101022.72;;;17.28;41.07
22000;BME280;11164;48.818;2.322;2023-05-14T10:25:44;101026.22;;;17.05;41.39
22000;BME280;11164;48.818;2.322;2023-05-14T10:28:10;101022.28;;;17.31;41.28
22000;BME280;11164;48.818;2.322;2023-05-14T10:30:42;101026.19;;;16.93;40.69
22000;BME280;11164;48.818;2.322;2023-05-14T10:33:11;101015.78;;;16.90;41.15
22000;BME280;11164;48.818;2.322;2023-05-14T10:35:57;101012.47;;;17.00;40.44
22000;BME280;11164;48.818;2.322;2023-05-14T10:38:34;101005.88;;;17.08;41.21
22000;BME280;11164;48.818;2.322;2023-05-14T10:41:13;101021.31;;;17.79;40.36
22000;BME280;11164;48.818;2.322;2023-05-14T10:43:42;101006.34;;;18.06;39.91
22000;BME280;11164;48.818;2.322;2023-05-14T10:46:10;101011.69;;;18.24;39.59
22000;BME280;11164;48.818;2.322;2023-05-14T10:48:36;101000.44;;;18.09;40.26
22000;BME280;11164;48.818;2.322;2023-05-14T10:51:09;101004.13;;;18.55;39.68
22000;BME280;11164;48.818;2.322;2023-05-14T10:53:37;101002.03;;;18.57;39.67
22000;BME280;11164;48.818;2.322;2023-05-14T10:56:08;101013.97;;;18.97;39.02
22000;BME280;11164;48.818;2.322;2023-05-14T10:58:38;101002.63;;;19.05;39.34
22000;BME280;11164;48.818;2.322;2023-05-14T11:01:08;100996.16;;;19.57;38.17
22000;BME280;11164;48.818;2.322;2023-05-14T11:03:45;100998.97;;;19.62;37.90
22000;BME280;11164;48.818;2.322;2023-05-14T11:06:13;100990.31;;;20.04;37.90
22000;BME280;11164;48.818;2.322;2023-05-14T11:08:39;100989.13;;;20.39;37.78
22000;BME280;11164;48.818;2.322;2023-05-14T11:11:09;100989.75;;;20.02;38.18
22000;BME280;11164;48.818;2.322;2023-05-14T11:13:34;100984.69;;;20.33;37.71
22000;BME280;11164;48.818;2.322;2023-05-14T11:16:01;100986.75;;;20.48;37.55
22000;BME280;11164;48.818;2.322;2023-05-14T11:18:31;100976.28;;;20.61;36.83
22000;BME280;11164;48.818;2.322;2023-05-14T11:21:06;100972.19;;;20.64;37.14
22000;BME280;11164;48.818;2.322;2023-05-14T11:23:31;100970.50;;;19.80;38.27
22000;BME280;11164;48.818;2.322;2023-05-14T11:25:56;100973.69;;;19.88;38.19
22000;BME280;11164;48.818;2.322;2023-05-14T11:28:23;100970.91;;;20.05;37.72
22000;BME280;11164;48.818;2.322;2023-05-14T11:30:52;100969.25;;;20.49;35.30
22000;BME280;11164;48.818;2.322;2023-05-14T11:33:19;100968.81;;;20.79;36.73
22000;BME280;11164;48.818;2.322;2023-05-14T11:35:45;100962.38;;;20.68;36.98
22000;BME280;11164;48.818;2.322;2023-05-14T11:38:20;100956.56;;;20.42;36.48
22000;BME280;11164;48.818;2.322;2023-05-14T11:40:56;100954.56;;;19.72;36.60
22000;BME280;11164;48.818;2.322;2023-05-14T11:43:21;100957.88;;;19.91;37.54
22000;BME280;11164;48.818;2.322;2023-05-14T11:45:53;100960.38;;;19.58;37.98
22000;BME280;11164;48.818;2.322;2023-05-14T11:48:20;100949.50;;;20.02;36.88
22000;BME280;11164;48.818;2.322;2023-05-14T11:50:48;100947.50;;;20.59;36.33
22000;BME280;11164;48.818;2.322;2023-05-14T11:53:17;100939.16;;;20.04;36.93
22000;BME280;11164;48.818;2.322;2023-05-14T11:55:44;100945.47;;;20.05;37.14
22000;BME280;11164;48.818;2.322;2023-05-14T11:58:10;100944.09;;;20.74;35.93
22000;BME280;11164;48.818;2.322;2023-05-14T12:00:37;100938.00;;;21.26;35.29
22000;BME280;11164;48.818;2.322;2023-05-14T12:03:04;100943.25;;;21.00;35.71
22000;BME280;11164;48.818;2.322;2023-05-14T12:05:30;100937.59;;;20.58;36.31
22000;BME280;11164;48.818;2.322;2023-05-14T12:07:55;100939.22;;;20.81;35.85
22000;BME280;11164;48.818;2.322;2023-05-14T12:10:21;100929.38;;;20.58;36.03
22000;BME280;11164;48.818;2.322;2023-05-14T12:12:48;100917.41;;;20.42;36.13
22000;BME280;11164;48.818;2.322;2023-05-14T12:15:14;100936.84;;;20.62;35.86
22000;BME280;11164;48.818;2.322;2023-05-14T12:17:41;100925.81;;;20.35;36.15
22000;BME280;11164;48.818;2.322;2023-05-14T12:20:08;100932.66;;;20.33;36.10
22000;BME280;11164;48.818;2.322;2023-05-14T12:22:34;100924.75;;;20.14;36.41
22000;BME280;11164;48.818;2.322;2023-05-14T12:25:00;100922.03;;;20.58;35.66
22000;BME280;11164;48.818;2.322;2023-05-14T12:27:27;100917.81;;;21.05;35.00
22000;BME280;11164;48.818;2.322;2023-05-14T12:30:01;100920.47;;;21.70;33.81
22000;BME280;11164;48.818;2.322;2023-05-14T12:32:28;100913.25;;;21.59;34.51
22000;BME280;11164;48.818;2.322;2023-05-14T12:34:55;100904.78;;;22.13;33.67
22000;BME280;11164;48.818;2.322;2023-05-14T12:37:20;100906.59;;;22.71;32.68
22000;BME280;11164;48.818;2.322;2023-05-14T12:39:46;100906.50;;;22.40;33.33
22000;BME280;11164;48.818;2.322;2023-05-14T12:42:11;100901.56;;;22.42;33.13
22000;BME280;11164;48.818;2.322;2023-05-14T12:44:36;100885.97;;;22.73;33.28
22000;BME280;11164;48.818;2.322;2023-05-14T12:47:02;100896.97;;;23.09;32.44
22000;BME280;11164;48.818;2.322;2023-05-14T12:49:28;100883.47;;;23.49;32.17
22000;BME280;11164;48.818;2.322;2023-05-14T12:51:53;100871.69;;;23.38;32.51
22000;BME280;11164;48.818;2.322;2023-05-14T12:54:19;100881.88;;;22.96;33.36